sensor_id;sensor_type;location;lat;lon;timestamp;P1;durP1;ratioP1;P2;durP2;ratioP2
72388;SDS011;60566;48.062;9.930;2023-10-19T00:02:17;23.98;;;14.18;;
72388;SDS011;60566;48.062;9.930;2023-10-19T00:04:44;23.95;;;15.60;;
72388;SDS011;60566;48.062;9.930;2023-10-19T00:07:10;26.13;;;16.00;;
72388;SDS011;60566;48.062;9.930;2023-10-19T00:09:35;23.52;;;14.45;;
72388;SDS011;60566;48.062;9.930;2023-10-19T00:12:00;20.65;;;12.65;;
72388;SDS011;60566;48.062;9.930;2023-10-19T00:14:26;24.20;;;14.27;;
72388;SDS011;60566;48.062;9.930;2023-10-19T00:16:51;24.75;;;14.38;;
72388;SDS011;60566;48.062;9.930;2023-10-19T00:19:17;24.40;;;15.45;;
72388;SDS011;60566;48.062;9.930;2023-10-19T00:21:43;24.65;;;14.38;;
72388;SDS011;60566;48.062;9.930;2023-10-19T00:24:09;25.30;;;15.25;;
72388;SDS011;60566;48.062;9.930;2023-10-19T00:26:34;24.35;;;15.52;;
72388;SDS011;60566;48.062;9.930;2023-10-19T00:28:59;24.55;;;14.48;;
72388;SDS011;60566;48.062;9.930;2023-10-19T00:31:25;25.55;;;15.60;;
72388;SDS011;60566;48.062;9.930;2023-10-19T00:33:51;22.63;;;14.40;;
72388;SDS011;60566;48.062;9.930;2023-10-19T00:36:17;24.02;;;15.05;;
72388;SDS011;60566;48.062;9.930;2023-10-19T00:38:44;23.23;;;14.88;;
72388;SDS011;60566;48.062;9.930;2023-10-19T00:41:09;25.13;;;14.63;;
72388;SDS011;60566;48.062;9.930;2023-10-19T00:43:35;21.98;;;14.50;;
72388;SDS011;60566;48.062;9.930;2023-10-19T00:46:01;24.95;;;15.30;;
72388;SDS011;60566;48.062;9.930;2023-10-19T00:48:27;23.02;;;14.05;;
72388;SDS011;60566;48.062;9.930;2023-10-19T00:50:53;22.55;;;14.50;;
72388;SDS011;60566;48.062;9.930;2023-10-19T00:53:18;22.30;;;13.60;;
72388;SDS011;60566;48.062;9.930;2023-10-19T00:55:45;23.17;;;14.63;;
72388;SDS011;60566;48.062;9.930;2023-10-19T00:58:11;25.42;;;14.90;;
72388;SDS011;60566;48.062;9.930;2023-10-19T01:00:36;20.75;;;14.10;;
72388;SDS011;60566;48.062;9.930;2023-10-19T01:03:02;22.65;;;14.25;;
72388;SDS011;60566;48.062;9.930;2023-10-19T01:05:28;23.58;;;14.10;;
72388;SDS011;60566;48.062;9.930;2023-10-19T01:07:53;24.42;;;15.68;;
72388;SDS011;60566;48.062;9.930;2023-10-19T01:10:19;23.30;;;14.77;;
72388;SDS011;60566;48.062;9.930;2023-10-19T01:12:46;23.60;;;14.57;;
72388;SDS011;60566;48.062;9.930;2023-10-19T01:15:12;24.75;;;14.30;;
72388;SDS011;60566;48.062;9.930;2023-10-19T01:17:38;22.42;;;15.35;;
72388;SDS011;60566;48.062;9.930;2023-10-19T01:20:06;25.75;;;15.63;;
72388;SDS011;60566;48.062;9.930;2023-10-19T01:22:32;25.40;;;15.57;;
72388;SDS011;60566;48.062;9.930;2023-10-19T01:24:59;24.10;;;14.30;;
72388;SDS011;60566;48.062;9.930;2023-10-19T01:27:28;23.88;;;14.88;;
72388;SDS011;60566;48.062;9.930;2023-10-19T01:29:54;25.38;;;15.20;;
72388;SDS011;60566;48.062;9.930;2023-10-19T01:32:19;24.20;;;13.30;;
72388;SDS011;60566;48.062;9.930;2023-10-19T01:34:44;24.15;;;15.13;;
72388;SDS011;60566;48.062;9.930;2023-10-19T01:37:10;22.45;;;13.65;;
72388;SDS011;60566;48.062;9.930;2023-10-19T01:39:35;27.45;;;14.57;;
72388;SDS011;60566;48.062;9.930;2023-10-19T01:42:02;26.52;;;14.40;;
72388;SDS011;60566;48.062;9.930;2023-10-19T01:44:28;22.67;;;14.43;;
72388;SDS011;60566;48.062;9.930;2023-10-19T01:46:53;21.50;;;14.20;;
72388;SDS011;60566;48.062;9.930;2023-10-19T01:49:18;21.77;;;14.50;;
72388;SDS011;60566;48.062;9.930;2023-10-19T01:51:44;22.92;;;12.88;;
72388;SDS011;60566;48.062;9.930;2023-10-19T01:54:09;22.50;;;13.52;;
72388;SDS011;60566;48.062;9.930;2023-10-19T01:56:37;22.83;;;14.13;;
72388;SDS011;60566;48.062;9.930;2023-10-19T01:59:04;20.80;;;12.95;;
72388;SDS011;60566;48.062;9.930;2023-10-19T02:01:29;21.15;;;14.07;;
72388;SDS011;60566;48.062;9.930;2023-10-19T02:03:56;20.52;;;13.57;;
72388;SDS011;60566;48.062;9.930;2023-10-19T02:08:50;18.42;;;12.00;;
72388;SDS011;60566;48.062;9.930;2023-10-19T02:11:16;20.92;;;12.15;;
72388;SDS011;60566;48.062;9.930;2023-10-19T02:13:41;19.73;;;12.77;;
72388;SDS011;60566;48.062;9.930;2023-10-19T02:16:08;19.65;;;13.52;;
72388;SDS011;60566;48.062;9.930;2023-10-19T02:18:36;21.38;;;14.23;;
72388;SDS011;60566;48.062;9.930;2023-10-19T02:21:01;21.25;;;13.23;;
72388;SDS011;60566;48.062;9.930;2023-10-19T02:23:26;20.73;;;13.68;;
72388;SDS011;60566;48.062;9.930;2023-10-19T02:25:52;19.80;;;12.75;;
72388;SDS011;60566;48.062;9.930;2023-10-19T02:28:17;21.17;;;13.15;;
72388;SDS011;60566;48.062;9.930;2023-10-19T02:30:43;21.70;;;13.18;;
72388;SDS011;60566;48.062;9.930;2023-10-19T02:33:09;23.15;;;13.00;;
72388;SDS011;60566;48.062;9.930;2023-10-19T02:35:35;21.35;;;13.57;;
72388;SDS011;60566;48.062;9.930;2023-10-19T02:38:00;19.88;;;12.95;;
72388;SDS011;60566;48.062;9.930;2023-10-19T02:40:25;21.23;;;12.57;;
72388;SDS011;60566;48.062;9.930;2023-10-19T02:42:51;18.20;;;11.93;;
72388;SDS011;60566;48.062;9.930;2023-10-19T02:45:16;18.30;;;12.25;;
72388;SDS011;60566;48.062;9.930;2023-10-19T02:47:42;18.77;;;12.30;;
72388;SDS011;60566;48.062;9.930;2023-10-19T02:50:10;20.08;;;12.15;;
72388;SDS011;60566;48.062;9.930;2023-10-19T02:52:35;18.75;;;12.00;;
72388;SDS011;60566;48.062;9.930;2023-10-19T02:55:01;19.33;;;12.95;;
72388;SDS011;60566;48.062;9.930;2023-10-19T02:57:26;19.52;;;12.80;;
72388;SDS011;60566;48.062;9.930;2023-10-19T02:59:51;18.08;;;12.82;;
72388;SDS011;60566;48.062;9.930;2023-10-19T03:02:17;18.42;;;12.45;;
72388;SDS011;60566;48.062;9.930;2023-10-19T03:04:42;18.67;;;12.27;;
72388;SDS011;60566;48.062;9.930;2023-10-19T03:07:09;19.00;;;12.73;;
72388;SDS011;60566;48.062;9.930;2023-10-19T03:09:35;21.23;;;13.98;;
72388;SDS011;60566;48.062;9.930;2023-10-19T03:12:00;20.77;;;13.77;;
72388;SDS011;60566;48.062;9.930;2023-10-19T03:14:25;25.67;;;14.65;;
72388;SDS011;60566;48.062;9.930;2023-10-19T03:16:51;21.38;;;12.82;;
72388;SDS011;60566;48.062;9.930;2023-10-19T03:19:17;19.92;;;13.35;;
72388;SDS011;60566;48.062;9.930;2023-10-19T03:21:42;22.33;;;13.63;;
72388;SDS011;60566;48.062;9.930;2023-10-19T03:24:09;22.00;;;13.23;;
72388;SDS011;60566;48.062;9.930;2023-10-19T03:26:35;18.50;;;12.57;;
72388;SDS011;60566;48.062;9.930;2023-10-19T03:29:00;23.63;;;14.32;;
72388;SDS011;60566;48.062;9.930;2023-10-19T03:31:26;22.25;;;14.07;;
72388;SDS011;60566;48.062;9.930;2023-10-19T03:33:51;20.60;;;13.52;;
72388;SDS011;60566;48.062;9.930;2023-10-19T03:36:17;20.88;;;12.82;;
72388;SDS011;60566;48.062;9.930;2023-10-19T03:38:42;22.33;;;12.48;;
72388;SDS011;60566;48.062;9.930;2023-10-19T03:41:09;23.70;;;14.48;;
72388;SDS011;60566;48.062;9.930;2023-10-19T03:43:34;24.90;;;15.93;;
72388;SDS011;60566;48.062;9.930;2023-10-19T03:46:01;24.52;;;16.08;;
72388;SDS011;60566;48.062;9.930;2023-10-19T03:48:27;25.58;;;15.35;;
72388;SDS011;60566;48.062;9.930;2023-10-19T03:50:53;24.15;;;13.07;;
72388;SDS011;60566;48.062;9.930;2023-10-19T03:53:18;21.40;;;13.35;;
72388;SDS011;60566;48.062;9.930;2023-10-19T03:55:44;19.67;;;13.23;;
72388;SDS011;60566;48.062;9.930;2023-10-19T03:58:11;20.17;;;12.60;;
72388;SDS011;60566;48.062;9.930;2023-10-19T04:00:36;21.60;;;12.65;;
72388;SDS011;60566;48.062;9.930;2023-10-19T04:03:01;20.48;;;12.23;;
72388;SDS011;60566;48.062;9.930;2023-10-19T04:05:27;22.05;;;12.98;;
72388;SDS011;60566;48.062;9.930;2023-10-19T04:07:52;19.00;;;12.57;;
72388;SDS011;60566;48.062;9.930;2023-10-19T04:10:18;22.98;;;12.98;;
72388;SDS011;60566;48.062;9.930;2023-10-19T04:12:43;19.73;;;12.93;;
72388;SDS011;60566;48.062;9.930;2023-10-19T04:15:10;19.63;;;12.75;;
72388;SDS011;60566;48.062;9.930;2023-10-19T04:17:36;20.95;;;13.10;;
72388;SDS011;60566;48.062;9.930;2023-10-19T04:20:01;19.45;;;12.35;;
72388;SDS011;60566;48.062;9.930;2023-10-19T04:22:27;22.70;;;14.40;;
72388;SDS011;60566;48.062;9.930;2023-10-19T04:24:53;18.95;;;11.75;;
72388;SDS011;60566;48.062;9.930;2023-10-19T04:27:19;20.77;;;12.75;;
72388;SDS011;60566;48.062;9.930;2023-10-19T04:29:45;21.17;;;12.73;;
72388;SDS011;60566;48.062;9.930;2023-10-19T04:32:11;23.70;;;12.57;;
72388;SDS011;60566;48.062;9.930;2023-10-19T04:34:37;17.73;;;11.43;;
72388;SDS011;60566;48.062;9.930;2023-10-19T04:37:02;20.80;;;12.57;;
72388;SDS011;60566;48.062;9.930;2023-10-19T04:39:28;24.20;;;13.05;;
72388;SDS011;60566;48.062;9.930;2023-10-19T04:41:53;19.85;;;11.95;;
72388;SDS011;60566;48.062;9.930;2023-10-19T04:44:19;23.20;;;12.98;;
72388;SDS011;60566;48.062;9.930;2023-10-19T04:46:44;23.63;;;13.68;;
72388;SDS011;60566;48.062;9.930;2023-10-19T04:49:11;17.90;;;11.07;;
72388;SDS011;60566;48.062;9.930;2023-10-19T04:51:36;21.77;;;12.68;;
72388;SDS011;60566;48.062;9.930;2023-10-19T04:54:01;21.05;;;12.82;;
72388;SDS011;60566;48.062;9.930;2023-10-19T04:56:27;18.75;;;11.43;;
72388;SDS011;60566;48.062;9.930;2023-10-19T04:58:52;22.73;;;14.35;;
72388;SDS011;60566;48.062;9.930;2023-10-19T05:01:18;22.67;;;13.52;;
72388;SDS011;60566;48.062;9.930;2023-10-19T05:03:43;22.33;;;13.70;;
72388;SDS011;60566;48.062;9.930;2023-10-19T05:06:10;21.33;;;12.27;;
72388;SDS011;60566;48.062;9.930;2023-10-19T05:08:36;19.10;;;11.52;;
72388;SDS011;60566;48.062;9.930;2023-10-19T05:11:02;25.50;;;15.80;;
72388;SDS011;60566;48.062;9.930;2023-10-19T05:13:30;24.42;;;13.60;;
72388;SDS011;60566;48.062;9.930;2023-10-19T05:15:55;22.95;;;14.07;;
72388;SDS011;60566;48.062;9.930;2023-10-19T05:18:21;25.35;;;13.20;;
72388;SDS011;60566;48.062;9.930;2023-10-19T05:20:46;27.42;;;13.35;;
72388;SDS011;60566;48.062;9.930;2023-10-19T05:23:13;22.63;;;12.88;;
72388;SDS011;60566;48.062;9.930;2023-10-19T05:25:39;22.35;;;12.68;;
72388;SDS011;60566;48.062;9.930;2023-10-19T05:28:04;21.50;;;12.30;;
72388;SDS011;60566;48.062;9.930;2023-10-19T05:30:30;21.77;;;12.65;;
72388;SDS011;60566;48.062;9.930;2023-10-19T05:32:56;21.15;;;12.18;;
72388;SDS011;60566;48.062;9.930;2023-10-19T05:35:21;23.27;;;13.15;;
72388;SDS011;60566;48.062;9.930;2023-10-19T05:37:47;22.67;;;13.23;;
72388;SDS011;60566;48.062;9.930;2023-10-19T05:40:15;23.63;;;13.75;;
72388;SDS011;60566;48.062;9.930;2023-10-19T05:42:40;21.63;;;12.82;;
72388;SDS011;60566;48.062;9.930;2023-10-19T05:45:06;26.27;;;14.48;;
72388;SDS011;60566;48.062;9.930;2023-10-19T05:47:32;22.42;;;12.63;;
72388;SDS011;60566;48.062;9.930;2023-10-19T05:49:57;24.45;;;12.82;;
72388;SDS011;60566;48.062;9.930;2023-10-19T05:52:23;21.35;;;13.63;;
72388;SDS011;60566;48.062;9.930;2023-10-19T05:54:48;20.42;;;12.23;;
72388;SDS011;60566;48.062;9.930;2023-10-19T05:57:15;22.95;;;13.00;;
72388;SDS011;60566;48.062;9.930;2023-10-19T05:59:40;23.33;;;13.02;;
72388;SDS011;60566;48.062;9.930;2023-10-19T06:02:05;24.38;;;12.90;;
72388;SDS011;60566;48.062;9.930;2023-10-19T06:04:31;20.20;;;11.95;;
72388;SDS011;60566;48.062;9.930;2023-10-19T06:06:56;22.65;;;13.93;;
72388;SDS011;60566;48.062;9.930;2023-10-19T06:09:22;23.65;;;13.15;;
72388;SDS011;60566;48.062;9.930;2023-10-19T06:11:47;20.33;;;11.82;;
72388;SDS011;60566;48.062;9.930;2023-10-19T06:14:14;21.88;;;13.15;;
72388;SDS011;60566;48.062;9.930;2023-10-19T06:16:39;19.67;;;12.23;;
72388;SDS011;60566;48.062;9.930;2023-10-19T06:19:05;24.50;;;13.68;;
72388;SDS011;60566;48.062;9.930;2023-10-19T06:21:30;21.42;;;12.20;;
72388;SDS011;60566;48.062;9.930;2023-10-19T06:23:55;22.60;;;12.82;;
72388;SDS011;60566;48.062;9.930;2023-10-19T06:26:21;27.75;;;12.95;;
72388;SDS011;60566;48.062;9.930;2023-10-19T06:28:46;21.25;;;11.75;;
72388;SDS011;60566;48.062;9.930;2023-10-19T06:31:13;21.95;;;12.88;;
72388;SDS011;60566;48.062;9.930;2023-10-19T06:33:38;22.67;;;12.93;;
72388;SDS011;60566;48.062;9.930;2023-10-19T06:36:04;22.52;;;12.43;;
72388;SDS011;60566;48.062;9.930;2023-10-19T06:38:30;21.20;;;11.90;;
72388;SDS011;60566;48.062;9.930;2023-10-19T06:40:55;19.77;;;12.43;;
72388;SDS011;60566;48.062;9.930;2023-10-19T06:43:21;24.88;;;13.55;;
72388;SDS011;60566;48.062;9.930;2023-10-19T06:45:46;23.05;;;13.32;;
72388;SDS011;60566;48.062;9.930;2023-10-19T06:48:13;24.20;;;12.57;;
72388;SDS011;60566;48.062;9.930;2023-10-19T06:50:38;19.50;;;11.95;;
72388;SDS011;60566;48.062;9.930;2023-10-19T06:53:04;24.88;;;11.88;;
72388;SDS011;60566;48.062;9.930;2023-10-19T06:55:29;23.27;;;12.38;;
72388;SDS011;60566;48.062;9.930;2023-10-19T06:57:54;20.40;;;11.80;;
72388;SDS011;60566;48.062;9.930;2023-10-19T07:00:21;22.85;;;12.45;;
72388;SDS011;60566;48.062;9.930;2023-10-19T07:05:15;21.70;;;11.57;;
72388;SDS011;60566;48.062;9.930;2023-10-19T07:07:41;20.70;;;12.05;;
72388;SDS011;60566;48.062;9.930;2023-10-19T07:10:10;20.98;;;11.95;;
72388;SDS011;60566;48.062;9.930;2023-10-19T07:12:36;20.42;;;10.98;;
72388;SDS011;60566;48.062;9.930;2023-10-19T07:15:01;20.30;;;10.88;;
72388;SDS011;60566;48.062;9.930;2023-10-19T07:17:27;22.40;;;13.02;;
72388;SDS011;60566;48.062;9.930;2023-10-19T07:19:53;23.23;;;11.32;;
72388;SDS011;60566;48.062;9.930;2023-10-19T07:22:19;21.27;;;12.77;;
72388;SDS011;60566;48.062;9.930;2023-10-19T07:24:45;21.10;;;12.82;;
72388;SDS011;60566;48.062;9.930;2023-10-19T07:27:10;20.38;;;11.88;;
72388;SDS011;60566;48.062;9.930;2023-10-19T07:29:35;21.20;;;11.32;;
72388;SDS011;60566;48.062;9.930;2023-10-19T07:32:01;22.55;;;12.02;;
72388;SDS011;60566;48.062;9.930;2023-10-19T07:34:26;20.45;;;11.30;;
72388;SDS011;60566;48.062;9.930;2023-10-19T07:36:52;19.85;;;11.52;;
72388;SDS011;60566;48.062;9.930;2023-10-19T07:39:19;20.67;;;11.98;;
72388;SDS011;60566;48.062;9.930;2023-10-19T07:41:44;20.00;;;12.98;;
72388;SDS011;60566;48.062;9.930;2023-10-19T07:44:09;22.52;;;11.73;;
72388;SDS011;60566;48.062;9.930;2023-10-19T07:46:35;21.23;;;12.43;;
72388;SDS011;60566;48.062;9.930;2023-10-19T07:49:00;21.02;;;12.75;;
72388;SDS011;60566;48.062;9.930;2023-10-19T07:51:26;22.55;;;12.98;;
72388;SDS011;60566;48.062;9.930;2023-10-19T07:53:51;21.42;;;11.45;;
72388;SDS011;60566;48.062;9.930;2023-10-19T07:56:18;23.80;;;13.45;;
72388;SDS011;60566;48.062;9.930;2023-10-19T07:58:43;22.23;;;12.35;;
72388;SDS011;60566;48.062;9.930;2023-10-19T08:01:08;21.55;;;11.50;;
72388;SDS011;60566;48.062;9.930;2023-10-19T08:03:34;19.27;;;11.57;;
72388;SDS011;60566;48.062;9.930;2023-10-19T08:05:59;24.05;;;12.52;;
72388;SDS011;60566;48.062;9.930;2023-10-19T08:08:25;20.02;;;11.35;;
72388;SDS011;60566;48.062;9.930;2023-10-19T08:10:50;17.95;;;10.88;;
72388;SDS011;60566;48.062;9.930;2023-10-19T08:13:17;25.45;;;12.75;;
72388;SDS011;60566;48.062;9.930;2023-10-19T08:15:42;20.10;;;12.18;;
72388;SDS011;60566;48.062;9.930;2023-10-19T08:18:07;19.67;;;11.13;;
72388;SDS011;60566;48.062;9.930;2023-10-19T08:20:33;20.63;;;11.68;;
72388;SDS011;60566;48.062;9.930;2023-10-19T08:22:59;21.33;;;12.23;;
72388;SDS011;60566;48.062;9.930;2023-10-19T08:25:25;21.25;;;12.55;;
72388;SDS011;60566;48.062;9.930;2023-10-19T08:27:50;20.60;;;12.07;;
72388;SDS011;60566;48.062;9.930;2023-10-19T08:30:17;23.85;;;12.30;;
72388;SDS011;60566;48.062;9.930;2023-10-19T08:32:43;21.50;;;12.68;;
72388;SDS011;60566;48.062;9.930;2023-10-19T08:35:09;21.58;;;12.68;;
72388;SDS011;60566;48.062;9.930;2023-10-19T08:37:34;21.50;;;12.32;;
72388;SDS011;60566;48.062;9.930;2023-10-19T08:40:00;22.25;;;14.18;;
72388;SDS011;60566;48.062;9.930;2023-10-19T08:42:25;19.55;;;12.25;;
72388;SDS011;60566;48.062;9.930;2023-10-19T08:44:51;20.83;;;13.05;;
72388;SDS011;60566;48.062;9.930;2023-10-19T08:47:18;20.90;;;13.13;;
72388;SDS011;60566;48.062;9.930;2023-10-19T08:49:43;24.10;;;13.15;;
72388;SDS011;60566;48.062;9.930;2023-10-19T08:52:09;23.20;;;12.57;;
72388;SDS011;60566;48.062;9.930;2023-10-19T08:54:34;22.58;;;13.35;;
72388;SDS011;60566;48.062;9.930;2023-10-19T08:57:01;20.02;;;12.07;;
72388;SDS011;60566;48.062;9.930;2023-10-19T08:59:26;21.23;;;12.23;;
72388;SDS011;60566;48.062;9.930;2023-10-19T09:01:51;20.60;;;12.95;;
72388;SDS011;60566;48.062;9.930;2023-10-19T09:04:26;22.35;;;11.82;;
72388;SDS011;60566;48.062;9.930;2023-10-19T09:06:53;21.27;;;12.95;;
72388;SDS011;60566;48.062;9.930;2023-10-19T09:09:18;20.20;;;12.15;;
72388;SDS011;60566;48.062;9.930;2023-10-19T09:11:44;19.52;;;11.95;;
72388;SDS011;60566;48.062;9.930;2023-10-19T09:14:09;20.90;;;11.50;;
72388;SDS011;60566;48.062;9.930;2023-10-19T09:16:34;21.13;;;12.30;;
72388;SDS011;60566;48.062;9.930;2023-10-19T09:19:00;20.63;;;12.18;;
72388;SDS011;60566;48.062;9.930;2023-10-19T09:21:27;22.70;;;12.20;;
72388;SDS011;60566;48.062;9.930;2023-10-19T09:23:52;20.83;;;12.30;;
72388;SDS011;60566;48.062;9.930;2023-10-19T09:26:18;24.10;;;12.77;;
72388;SDS011;60566;48.062;9.930;2023-10-19T09:28:46;20.35;;;11.68;;
72388;SDS011;60566;48.062;9.930;2023-10-19T09:31:11;20.25;;;11.95;;
72388;SDS011;60566;48.062;9.930;2023-10-19T09:33:37;19.52;;;11.50;;
72388;SDS011;60566;48.062;9.930;2023-10-19T09:36:05;23.17;;;12.40;;
72388;SDS011;60566;48.062;9.930;2023-10-19T09:38:32;20.70;;;11.32;;
72388;SDS011;60566;48.062;9.930;2023-10-19T09:40:58;21.65;;;12.07;;
72388;SDS011;60566;48.062;9.930;2023-10-19T09:43:24;20.48;;;12.18;;
72388;SDS011;60566;48.062;9.930;2023-10-19T09:46:00;21.13;;;13.18;;
72388;SDS011;60566;48.062;9.930;2023-10-19T09:48:26;17.70;;;10.90;;
72388;SDS011;60566;48.062;9.930;2023-10-19T09:50:53;20.52;;;12.43;;
72388;SDS011;60566;48.062;9.930;2023-10-19T09:53:19;21.77;;;12.48;;
72388;SDS011;60566;48.062;9.930;2023-10-19T09:55:48;20.40;;;11.73;;
72388;SDS011;60566;48.062;9.930;2023-10-19T09:58:15;22.40;;;12.38;;
72388;SDS011;60566;48.062;9.930;2023-10-19T10:00:42;19.00;;;11.80;;
72388;SDS011;60566;48.062;9.930;2023-10-19T10:03:10;20.92;;;11.50;;
72388;SDS011;60566;48.062;9.930;2023-10-19T10:06:08;22.83;;;12.00;;
72388;SDS011;60566;48.062;9.930;2023-10-19T10:08:35;20.15;;;11.70;;
72388;SDS011;60566;48.062;9.930;2023-10-19T10:11:14;22.65;;;12.75;;
72388;SDS011;60566;48.062;9.930;2023-10-19T10:13:43;19.13;;;11.82;;
72388;SDS011;60566;48.062;9.930;2023-10-19T10:16:09;19.25;;;11.82;;
72388;SDS011;60566;48.062;9.930;2023-10-19T10:18:38;23.17;;;13.25;;
72388;SDS011;60566;48.062;9.930;2023-10-19T10:21:06;26.10;;;15.35;;
72388;SDS011;60566;48.062;9.930;2023-10-19T10:23:31;20.05;;;13.60;;
72388;SDS011;60566;48.062;9.930;2023-10-19T10:25:57;21.30;;;13.13;;
72388;SDS011;60566;48.062;9.930;2023-10-19T10:28:24;24.98;;;14.98;;
72388;SDS011;60566;48.062;9.930;2023-10-19T10:31:08;23.85;;;13.20;;
72388;SDS011;60566;48.062;9.930;2023-10-19T10:33:37;21.50;;;11.98;;
72388;SDS011;60566;48.062;9.930;2023-10-19T10:38:32;21.75;;;13.07;;
72388;SDS011;60566;48.062;9.930;2023-10-19T10:40:58;19.88;;;13.13;;
72388;SDS011;60566;48.062;9.930;2023-10-19T10:43:25;23.60;;;14.27;;
72388;SDS011;60566;48.062;9.930;2023-10-19T10:45:50;19.73;;;11.32;;
72388;SDS011;60566;48.062;9.930;2023-10-19T10:48:16;20.58;;;10.95;;
72388;SDS011;60566;48.062;9.930;2023-10-19T10:50:42;21.23;;;12.77;;
72388;SDS011;60566;48.062;9.930;2023-10-19T10:53:08;20.23;;;12.63;;
72388;SDS011;60566;48.062;9.930;2023-10-19T10:55:33;23.48;;;12.00;;
72388;SDS011;60566;48.062;9.930;2023-10-19T10:57:59;19.05;;;11.05;;
72388;SDS011;60566;48.062;9.930;2023-10-19T11:00:26;19.85;;;11.40;;
72388;SDS011;60566;48.062;9.930;2023-10-19T11:02:58;20.63;;;9.88;;
72388;SDS011;60566;48.062;9.930;2023-10-19T11:05:24;18.90;;;10.85;;
72388;SDS011;60566;48.062;9.930;2023-10-19T11:08:02;19.15;;;9.65;;
72388;SDS011;60566;48.062;9.930;2023-10-19T11:10:28;26.08;;;10.07;;
72388;SDS011;60566;48.062;9.930;2023-10-19T11:12:59;14.55;;;9.45;;
72388;SDS011;60566;48.062;9.930;2023-10-19T11:15:26;14.18;;;8.05;;
72388;SDS011;60566;48.062;9.930;2023-10-19T11:17:52;14.70;;;9.50;;
72388;SDS011;60566;48.062;9.930;2023-10-19T11:20:21;13.95;;;8.70;;
72388;SDS011;60566;48.062;9.930;2023-10-19T11:22:47;14.98;;;8.57;;
72388;SDS011;60566;48.062;9.930;2023-10-19T11:25:20;14.35;;;8.25;;
72388;SDS011;60566;48.062;9.930;2023-10-19T11:27:46;17.40;;;7.90;;
72388;SDS011;60566;48.062;9.930;2023-10-19T11:30:12;18.10;;;9.50;;
72388;SDS011;60566;48.062;9.930;2023-10-19T11:32:39;16.20;;;8.75;;
72388;SDS011;60566;48.062;9.930;2023-10-19T11:35:04;11.65;;;7.03;;
72388;SDS011;60566;48.062;9.930;2023-10-19T11:37:42;14.07;;;7.13;;
72388;SDS011;60566;48.062;9.930;2023-10-19T11:40:11;12.25;;;6.63;;
72388;SDS011;60566;48.062;9.930;2023-10-19T11:42:37;13.60;;;6.90;;
72388;SDS011;60566;48.062;9.930;2023-10-19T11:45:02;18.75;;;6.90;;
72388;SDS011;60566;48.062;9.930;2023-10-19T11:47:28;16.10;;;6.20;;
72388;SDS011;60566;48.062;9.930;2023-10-19T11:49:54;18.52;;;10.50;;
72388;SDS011;60566;48.062;9.930;2023-10-19T11:52:20;17.60;;;6.63;;
72388;SDS011;60566;48.062;9.930;2023-10-19T11:54:45;7.47;;;4.80;;
72388;SDS011;60566;48.062;9.930;2023-10-19T11:57:11;8.98;;;5.38;;
72388;SDS011;60566;48.062;9.930;2023-10-19T11:59:36;8.95;;;4.85;;
72388;SDS011;60566;48.062;9.930;2023-10-19T12:02:01;7.47;;;4.80;;
72388;SDS011;60566;48.062;9.930;2023-10-19T12:04:27;8.43;;;4.90;;
72388;SDS011;60566;48.062;9.930;2023-10-19T12:06:53;9.05;;;4.70;;
72388;SDS011;60566;48.062;9.930;2023-10-19T12:09:19;7.85;;;4.50;;
72388;SDS011;60566;48.062;9.930;2023-10-19T12:11:44;7.25;;;4.13;;
72388;SDS011;60566;48.062;9.930;2023-10-19T12:14:10;8.55;;;4.68;;
72388;SDS011;60566;48.062;9.930;2023-10-19T12:16:35;9.55;;;4.70;;
72388;SDS011;60566;48.062;9.930;2023-10-19T12:19:00;10.18;;;5.18;;
72388;SDS011;60566;48.062;9.930;2023-10-19T12:21:26;7.72;;;4.40;;
72388;SDS011;60566;48.062;9.930;2023-10-19T12:23:52;7.47;;;4.40;;
72388;SDS011;60566;48.062;9.930;2023-10-19T12:26:18;8.68;;;4.18;;
72388;SDS011;60566;48.062;9.930;2023-10-19T12:28:43;6.40;;;4.00;;
72388;SDS011;60566;48.062;9.930;2023-10-19T12:31:09;4.88;;;3.17;;
72388;SDS011;60566;48.062;9.930;2023-10-19T12:33:34;6.22;;;3.28;;
72388;SDS011;60566;48.062;9.930;2023-10-19T12:35:59;4.13;;;2.25;;
72388;SDS011;60566;48.062;9.930;2023-10-19T12:38:25;4.43;;;2.28;;
72388;SDS011;60566;48.062;9.930;2023-10-19T12:40:52;5.53;;;2.78;;
72388;SDS011;60566;48.062;9.930;2023-10-19T12:43:17;5.93;;;3.63;;
72388;SDS011;60566;48.062;9.930;2023-10-19T12:45:43;6.00;;;2.90;;
72388;SDS011;60566;48.062;9.930;2023-10-19T12:48:09;5.97;;;3.15;;
72388;SDS011;60566;48.062;9.930;2023-10-19T12:50:34;11.55;;;4.18;;
72388;SDS011;60566;48.062;9.930;2023-10-19T12:53:00;6.43;;;3.85;;
72388;SDS011;60566;48.062;9.930;2023-10-19T12:55:25;7.45;;;3.45;;
72388;SDS011;60566;48.062;9.930;2023-10-19T12:57:52;7.03;;;4.10;;
72388;SDS011;60566;48.062;9.930;2023-10-19T13:00:18;6.82;;;3.33;;
72388;SDS011;60566;48.062;9.930;2023-10-19T13:02:43;6.03;;;3.33;;
72388;SDS011;60566;48.062;9.930;2023-10-19T13:05:09;7.90;;;3.30;;
72388;SDS011;60566;48.062;9.930;2023-10-19T13:07:34;5.93;;;3.00;;
72388;SDS011;60566;48.062;9.930;2023-10-19T13:09:59;5.07;;;2.80;;
72388;SDS011;60566;48.062;9.930;2023-10-19T13:12:25;5.55;;;3.13;;
72388;SDS011;60566;48.062;9.930;2023-10-19T13:14:51;5.18;;;3.13;;
72388;SDS011;60566;48.062;9.930;2023-10-19T13:17:17;6.38;;;3.80;;
72388;SDS011;60566;48.062;9.930;2023-10-19T13:19:42;4.35;;;2.42;;
72388;SDS011;60566;48.062;9.930;2023-10-19T13:22:08;5.20;;;3.05;;
72388;SDS011;60566;48.062;9.930;2023-10-19T13:24:33;6.57;;;3.20;;
72388;SDS011;60566;48.062;9.930;2023-10-19T13:26:58;5.80;;;2.60;;
72388;SDS011;60566;48.062;9.930;2023-10-19T13:29:24;5.38;;;2.50;;
72388;SDS011;60566;48.062;9.930;2023-10-19T13:31:50;8.75;;;4.75;;
72388;SDS011;60566;48.062;9.930;2023-10-19T13:34:16;5.72;;;3.30;;
72388;SDS011;60566;48.062;9.930;2023-10-19T13:36:41;9.52;;;3.38;;
72388;SDS011;60566;48.062;9.930;2023-10-19T13:39:07;5.63;;;3.15;;
72388;SDS011;60566;48.062;9.930;2023-10-19T13:41:32;6.18;;;2.97;;
72388;SDS011;60566;48.062;9.930;2023-10-19T13:43:58;4.00;;;2.20;;
72388;SDS011;60566;48.062;9.930;2023-10-19T13:46:23;5.65;;;2.97;;
72388;SDS011;60566;48.062;9.930;2023-10-19T13:48:50;4.72;;;2.65;;
72388;SDS011;60566;48.062;9.930;2023-10-19T13:51:16;5.00;;;3.17;;
72388;SDS011;60566;48.062;9.930;2023-10-19T13:53:41;5.32;;;3.15;;
72388;SDS011;60566;48.062;9.930;2023-10-19T13:56:07;5.70;;;3.50;;
72388;SDS011;60566;48.062;9.930;2023-10-19T13:58:33;5.55;;;3.50;;
72388;SDS011;60566;48.062;9.930;2023-10-19T14:00:58;6.95;;;4.05;;
72388;SDS011;60566;48.062;9.930;2023-10-19T14:03:24;11.73;;;4.80;;
72388;SDS011;60566;48.062;9.930;2023-10-19T14:05:52;8.50;;;3.92;;
72388;SDS011;60566;48.062;9.930;2023-10-19T14:08:17;8.00;;;4.80;;
72388;SDS011;60566;48.062;9.930;2023-10-19T14:10:43;10.43;;;3.78;;
72388;SDS011;60566;48.062;9.930;2023-10-19T14:13:08;7.82;;;4.55;;
72388;SDS011;60566;48.062;9.930;2023-10-19T14:15:34;10.45;;;6.00;;
72388;SDS011;60566;48.062;9.930;2023-10-19T14:18:00;8.73;;;4.93;;
72388;SDS011;60566;48.062;9.930;2023-10-19T14:20:27;9.93;;;5.95;;
72388;SDS011;60566;48.062;9.930;2023-10-19T14:22:55;11.43;;;5.95;;
72388;SDS011;60566;48.062;9.930;2023-10-19T14:25:20;14.93;;;7.28;;
72388;SDS011;60566;48.062;9.930;2023-10-19T14:27:47;12.00;;;7.18;;